createdAt,value
2023-01-29T00:01:39.739Z,21.50
2023-01-29T00:04:09.158Z,20.37
2023-01-29T00:06:39.670Z,20.32
2023-01-29T00:09:09.153Z,19.32
2023-01-29T00:11:38.628Z,19.62
2023-01-29T00:14:08.225Z,20.62
2023-01-29T00:16:37.937Z,19.65
2023-01-29T00:19:08.952Z,19.70
2023-01-29T00:21:38.471Z,17.27
2023-01-29T00:24:08.094Z,18.95
2023-01-29T00:26:39.525Z,17.50
2023-01-29T00:29:08.954Z,19.95
2023-01-29T00:31:38.526Z,20.88
2023-01-29T00:34:09.466Z,20.77
2023-01-29T00:36:39.342Z,17.27
2023-01-29T00:39:13.594Z,19.82
2023-01-29T00:42:01.350Z,19.10
2023-01-29T00:44:48.710Z,18.50
2023-01-29T00:47:33.860Z,19.97
2023-01-29T00:50:12.026Z,19.20
2023-01-29T00:52:43.010Z,17.20
2023-01-29T00:55:13.496Z,17.50
2023-01-29T00:57:42.997Z,20.27
2023-01-29T01:00:16.281Z,18.42
2023-01-29T01:03:03.942Z,18.57
2023-01-29T01:05:33.708Z,18.95
2023-01-29T01:08:03.408Z,17.52
2023-01-29T01:10:34.673Z,25.32
2023-01-29T01:13:08.017Z,18.10
2023-01-29T01:15:40.118Z,18.33
2023-01-29T01:18:09.677Z,16.87
2023-01-29T01:20:40.829Z,17.00
2023-01-29T01:23:10.282Z,16.75
2023-01-29T01:25:39.700Z,17.57
2023-01-29T01:28:11.254Z,18.75
2023-01-29T01:30:40.719Z,18.35
2023-01-29T01:33:10.286Z,21.77
2023-01-29T01:35:41.685Z,19.73
2023-01-29T01:38:12.379Z,23.22
2023-01-29T01:40:45.090Z,21.75
2023-01-29T01:45:44.784Z,19.25
2023-01-29T01:48:22.366Z,17.92
2023-01-29T01:51:03.722Z,19.20
2023-01-29T01:53:42.020Z,17.23
2023-01-29T01:56:15.706Z,18.55
2023-01-29T01:58:50.267Z,16.85
2023-01-29T02:01:25.504Z,18.75
2023-01-29T02:04:14.957Z,17.07
2023-01-29T02:07:04.585Z,18.17
2023-01-29T02:09:49.437Z,17.35
2023-01-29T02:12:20.304Z,20.27
2023-01-29T02:14:51.960Z,19.52
2023-01-29T02:17:22.938Z,18.43
2023-01-29T02:20:13.552Z,18.82
2023-01-29T02:22:59.337Z,19.37
2023-01-29T02:25:44.821Z,17.02
2023-01-29T02:28:35.530Z,18.67
2023-01-29T02:31:31.028Z,18.60
2023-01-29T02:34:15.402Z,15.43
2023-01-29T02:36:48.144Z,18.02
2023-01-29T02:39:38.903Z,19.67
2023-01-29T02:42:21.296Z,18.75
2023-01-29T02:44:56.966Z,17.35
2023-01-29T02:47:44.766Z,19.03
2023-01-29T02:50:47.222Z,17.98
2023-01-29T02:53:19.544Z,17.92
2023-01-29T02:55:54.552Z,18.27
2023-01-29T02:58:33.011Z,17.65
2023-01-29T03:01:05.689Z,19.00
2023-01-29T03:03:42.897Z,19.57
2023-01-29T03:06:36.993Z,18.00
2023-01-29T03:09:12.497Z,16.42
2023-01-29T03:11:47.710Z,18.37
2023-01-29T03:14:26.321Z,19.73
2023-01-29T03:16:57.026Z,17.32
2023-01-29T03:19:33.820Z,16.45
2023-01-29T03:22:09.680Z,16.97
2023-01-29T03:26:01.620Z,17.35
2023-01-29T03:28:52.541Z,15.55
2023-01-29T03:31:40.763Z,19.70
2023-01-29T03:34:26.496Z,14.85
2023-01-29T03:36:59.020Z,13.70
2023-01-29T03:42:27.472Z,16.70
2023-01-29T03:45:08.845Z,19.65
2023-01-29T03:48:01.077Z,18.05
2023-01-29T03:51:05.559Z,17.57
2023-01-29T03:53:56.701Z,16.32
2023-01-29T03:56:54.041Z,18.00
2023-01-29T03:59:35.578Z,17.93
2023-01-29T04:04:40.107Z,18.07
2023-01-29T04:07:13.798Z,19.73
2023-01-29T04:10:02.093Z,18.05
2023-01-29T04:12:53.005Z,19.15
2023-01-29T04:15:25.268Z,18.52
2023-01-29T04:17:57.022Z,15.30
2023-01-29T04:20:28.948Z,15.70
2023-01-29T04:22:58.437Z,16.85
2023-01-29T04:25:31.924Z,19.32
2023-01-29T04:28:10.532Z,17.40
2023-01-29T04:31:04.735Z,17.35
2023-01-29T04:33:43.127Z,17.30
2023-01-29T04:36:36.749Z,20.00
2023-01-29T04:39:21.230Z,17.75
2023-01-29T04:42:19.703Z,15.40
2023-01-29T04:45:04.470Z,17.35
2023-01-29T04:47:59.848Z,16.37
2023-01-29T04:50:41.212Z,16.10
2023-01-29T04:53:29.363Z,15.72
2023-01-29T04:56:11.021Z,15.75
2023-01-29T04:58:46.463Z,18.73
2023-01-29T05:01:18.375Z,16.67
2023-01-29T05:03:51.386Z,18.20
2023-01-29T05:06:24.823Z,19.65
2023-01-29T05:08:56.481Z,18.25
2023-01-29T05:11:27.448Z,17.87
2023-01-29T05:13:57.745Z,16.20
2023-01-29T05:16:34.661Z,15.43
2023-01-29T05:19:04.272Z,18.57
2023-01-29T05:21:34.177Z,16.50
2023-01-29T05:24:16.104Z,15.70
2023-01-29T05:27:06.726Z,15.70
2023-01-29T05:29:36.476Z,17.00
2023-01-29T05:32:06.056Z,17.52
2023-01-29T05:34:35.620Z,15.65
2023-01-29T05:37:05.223Z,14.75
2023-01-29T05:39:34.714Z,19.60
2023-01-29T05:42:04.267Z,17.62
2023-01-29T05:44:33.753Z,15.77
2023-01-29T05:47:03.253Z,18.00
2023-01-29T05:49:32.744Z,17.62
2023-01-29T05:52:02.520Z,15.95
2023-01-29T05:54:32.297Z,17.90
2023-01-29T05:57:02.374Z,16.77
2023-01-29T05:59:31.944Z,16.83
2023-01-29T06:02:01.455Z,17.23
2023-01-29T06:04:31.166Z,17.98
2023-01-29T06:07:02.226Z,19.23
2023-01-29T06:09:31.929Z,16.87
2023-01-29T06:12:01.355Z,18.57
2023-01-29T06:14:30.795Z,17.70
2023-01-29T06:17:00.267Z,16.82
2023-01-29T06:19:29.713Z,16.02
2023-01-29T06:21:59.207Z,17.50
2023-01-29T06:24:28.691Z,16.73
2023-01-29T06:26:58.091Z,19.25
2023-01-29T06:29:27.525Z,18.73
2023-01-29T06:31:57.128Z,19.87
2023-01-29T06:34:26.985Z,19.70
2023-01-29T06:36:56.495Z,16.12
2023-01-29T06:39:26.193Z,19.95
2023-01-29T06:41:55.682Z,18.87
2023-01-29T06:44:25.142Z,16.57
2023-01-29T06:46:54.906Z,20.40
2023-01-29T06:49:24.346Z,17.62
2023-01-29T06:51:53.769Z,21.00
2023-01-29T06:54:23.247Z,18.10
2023-01-29T06:56:53.438Z,20.25
2023-01-29T06:59:22.862Z,19.87
2023-01-29T07:01:52.561Z,20.60
2023-01-29T07:04:22.010Z,16.07
2023-01-29T07:06:51.447Z,19.55
2023-01-29T07:09:21.013Z,20.00
2023-01-29T07:11:50.431Z,19.50
2023-01-29T07:14:20.192Z,20.48
2023-01-29T07:16:49.984Z,23.42
2023-01-29T07:19:19.502Z,25.70
2023-01-29T07:21:48.968Z,24.40
2023-01-29T07:24:19.587Z,23.95
2023-01-29T07:26:49.127Z,19.35
2023-01-29T07:29:18.568Z,20.10
2023-01-29T07:31:48.177Z,18.90
2023-01-29T07:34:20.886Z,21.65
2023-01-29T07:36:50.731Z,19.73
2023-01-29T07:39:20.158Z,20.12
2023-01-29T07:41:49.595Z,20.20
2023-01-29T07:44:19.084Z,20.40
2023-01-29T07:46:48.514Z,21.27
2023-01-29T07:49:18.332Z,23.18
2023-01-29T07:51:47.839Z,21.82
2023-01-29T07:54:17.240Z,18.70
2023-01-29T07:56:46.672Z,20.45
2023-01-29T07:59:16.303Z,19.48
2023-01-29T08:01:45.740Z,20.37
2023-01-29T08:04:15.168Z,22.10
2023-01-29T08:06:45.201Z,20.68
2023-01-29T08:09:14.902Z,22.10
2023-01-29T08:11:45.977Z,25.17
2023-01-29T08:14:15.770Z,22.65
2023-01-29T08:16:45.239Z,23.75
2023-01-29T08:19:14.690Z,23.10
2023-01-29T08:21:45.227Z,20.48
2023-01-29T08:26:43.356Z,23.17
2023-01-29T08:29:13.881Z,25.17
2023-01-29T08:31:43.360Z,27.55
2023-01-29T08:34:12.855Z,24.52
2023-01-29T08:36:42.521Z,22.52
2023-01-29T08:39:12.104Z,23.98
2023-01-29T08:41:41.540Z,21.67
2023-01-29T08:44:11.196Z,23.47
2023-01-29T08:46:40.888Z,23.02
2023-01-29T08:49:11.027Z,23.35
2023-01-29T08:51:40.481Z,21.55
2023-01-29T08:54:09.990Z,21.93
2023-01-29T08:56:39.807Z,23.13
2023-01-29T08:59:10.307Z,25.90
2023-01-29T09:01:39.836Z,21.42
2023-01-29T09:04:09.463Z,23.47
2023-01-29T09:06:38.945Z,20.90
2023-01-29T09:09:08.377Z,21.52
2023-01-29T09:11:38.377Z,25.27
2023-01-29T09:14:08.395Z,21.20
2023-01-29T09:16:37.828Z,22.07
2023-01-29T09:19:08.420Z,22.50
2023-01-29T09:21:37.860Z,25.27
2023-01-29T09:24:07.855Z,19.82
2023-01-29T09:26:39.252Z,23.13
2023-01-29T09:29:10.600Z,22.07
2023-01-29T09:31:40.302Z,23.22
2023-01-29T09:34:10.056Z,21.10
2023-01-29T09:36:39.603Z,22.58
2023-01-29T09:39:09.682Z,23.38
2023-01-29T09:41:42.177Z,23.03
2023-01-29T09:44:20.473Z,22.15
2023-01-29T09:46:52.718Z,24.60
2023-01-29T09:49:28.802Z,20.50
2023-01-29T09:52:01.304Z,20.00
2023-01-29T09:57:04.178Z,19.52
2023-01-29T09:59:33.684Z,19.17
2023-01-29T10:02:33.204Z,21.48
2023-01-29T10:05:08.493Z,20.75
2023-01-29T10:07:46.719Z,20.92
2023-01-29T10:10:25.069Z,19.05
2023-01-29T10:13:03.382Z,17.75
2023-01-29T10:15:39.333Z,18.15
2023-01-29T10:18:14.564Z,18.70
2023-01-29T10:21:14.152Z,19.32
2023-01-29T10:23:52.826Z,18.37
2023-01-29T10:26:25.378Z,19.98
2023-01-29T10:28:57.953Z,20.55
2023-01-29T10:31:37.569Z,16.20
2023-01-29T10:34:19.329Z,19.00
2023-01-29T10:36:50.795Z,20.08
2023-01-29T10:39:23.342Z,18.57
2023-01-29T10:42:15.687Z,16.57
2023-01-29T10:45:03.361Z,18.80
2023-01-29T10:47:53.100Z,18.00
2023-01-29T10:50:27.156Z,17.65
2023-01-29T10:53:11.498Z,16.73
2023-01-29T10:56:21.814Z,18.48
2023-01-29T10:58:48.261Z,17.80
2023-01-29T11:01:18.017Z,14.90
2023-01-29T11:03:48.970Z,15.23
2023-01-29T11:06:25.530Z,16.03
2023-01-29T11:09:10.161Z,13.88
2023-01-29T11:12:12.975Z,15.25
2023-01-29T11:14:45.481Z,15.73
2023-01-29T11:17:24.471Z,15.53
2023-01-29T11:19:58.304Z,15.23
2023-01-29T11:22:30.820Z,13.60
2023-01-29T11:25:18.439Z,12.73
2023-01-29T11:27:56.434Z,15.18
2023-01-29T11:30:38.670Z,13.15
2023-01-29T11:33:25.453Z,12.25
2023-01-29T11:35:56.593Z,14.38
2023-01-29T11:38:30.417Z,11.57
2023-01-29T11:41:08.862Z,11.93
2023-01-29T11:43:38.980Z,11.38
2023-01-29T11:46:14.298Z,13.80
2023-01-29T11:48:48.417Z,11.75
2023-01-29T11:51:30.184Z,14.05
2023-01-29T11:54:03.062Z,10.90
2023-01-29T11:56:38.457Z,10.72
2023-01-29T11:59:09.672Z,11.38
2023-01-29T12:01:42.292Z,13.20
2023-01-29T12:04:23.761Z,11.45
2023-01-29T12:06:55.134Z,9.73
2023-01-29T12:09:28.589Z,9.93
2023-01-29T12:12:01.072Z,9.93
2023-01-29T12:14:37.774Z,12.23
2023-01-29T12:17:26.628Z,10.20
2023-01-29T12:19:59.211Z,12.78
2023-01-29T12:22:43.656Z,10.28
2023-01-29T12:25:19.209Z,10.65
2023-01-29T12:27:57.357Z,7.97
2023-01-29T12:30:38.787Z,7.42
2023-01-29T12:33:14.191Z,7.35
2023-01-29T12:36:00.424Z,7.62
2023-01-29T12:38:29.993Z,6.92
2023-01-29T12:41:08.677Z,9.45
2023-01-29T12:43:44.220Z,6.22
2023-01-29T12:46:19.941Z,6.35
2023-01-29T12:48:50.510Z,8.73
2023-01-29T12:51:29.284Z,6.75
2023-01-29T12:54:02.342Z,7.45
2023-01-29T12:56:37.053Z,9.43
2023-01-29T12:59:18.306Z,10.48
2023-01-29T13:01:54.234Z,9.08
2023-01-29T13:04:41.788Z,11.05
2023-01-29T13:07:24.181Z,17.32
2023-01-29T13:09:56.755Z,15.07
2023-01-29T13:12:27.415Z,11.43
2023-01-29T13:15:02.775Z,7.85
2023-01-29T13:17:38.189Z,10.93
2023-01-29T13:20:16.560Z,10.15
2023-01-29T13:22:50.129Z,9.18
2023-01-29T13:25:21.257Z,10.85
2023-01-29T13:27:51.793Z,8.58
2023-01-29T13:30:30.639Z,9.30
2023-01-29T13:33:10.145Z,8.85
2023-01-29T13:35:43.067Z,11.63
2023-01-29T13:38:35.618Z,9.75
2023-01-29T13:41:09.825Z,8.15
2023-01-29T13:43:42.532Z,8.10
2023-01-29T13:46:19.162Z,8.20
2023-01-29T13:48:52.345Z,8.15
2023-01-29T13:51:24.216Z,8.00
2023-01-29T13:54:05.260Z,7.53
2023-01-29T13:56:37.746Z,7.92
2023-01-29T13:59:09.504Z,9.65
2023-01-29T14:01:51.187Z,8.40
2023-01-29T14:04:27.272Z,9.03
2023-01-29T14:07:03.350Z,10.60
2023-01-29T14:09:42.321Z,9.18
2023-01-29T14:12:26.720Z,10.15
2023-01-29T14:14:59.965Z,9.88
2023-01-29T14:17:31.130Z,10.85
2023-01-29T14:20:07.377Z,9.05
2023-01-29T14:22:36.796Z,8.73
2023-01-29T14:25:08.657Z,9.58
2023-01-29T14:27:38.965Z,8.98
2023-01-29T14:30:12.329Z,9.83
2023-01-29T14:32:42.326Z,10.75
2023-01-29T14:35:21.294Z,9.85
2023-01-29T14:37:53.800Z,9.20
2023-01-29T14:40:26.326Z,9.70
2023-01-29T14:43:04.638Z,10.35
2023-01-29T14:45:45.282Z,11.25
2023-01-29T14:48:27.929Z,7.97
2023-01-29T14:51:00.377Z,9.35
2023-01-29T14:56:24.559Z,11.10
2023-01-29T14:58:59.978Z,10.40
2023-01-29T15:01:32.536Z,9.53
2023-01-29T15:04:07.885Z,9.23
2023-01-29T15:06:49.052Z,11.97
2023-01-29T15:09:50.688Z,10.50
2023-01-29T15:12:26.002Z,9.88
2023-01-29T15:15:16.649Z,10.28
2023-01-29T15:18:07.212Z,11.50
2023-01-29T15:20:39.950Z,10.28
2023-01-29T15:23:29.907Z,9.78
2023-01-29T15:26:03.430Z,10.05
2023-01-29T15:28:35.537Z,10.65
2023-01-29T15:33:40.579Z,10.72
2023-01-29T15:36:13.479Z,9.63
2023-01-29T15:38:43.104Z,10.48
2023-01-29T15:41:24.569Z,11.00
2023-01-29T15:44:01.782Z,10.32
2023-01-29T15:46:36.889Z,8.93
2023-01-29T15:49:12.048Z,10.78
2023-01-29T15:51:41.635Z,10.53
2023-01-29T15:54:17.468Z,10.75
2023-01-29T15:56:49.962Z,9.58
2023-01-29T15:59:22.444Z,10.63
2023-01-29T16:01:54.845Z,9.60
2023-01-29T16:04:31.369Z,11.30
2023-01-29T16:07:03.754Z,11.78
2023-01-29T16:09:33.318Z,11.22
2023-01-29T16:12:04.224Z,11.12
2023-01-29T16:14:34.799Z,10.15
2023-01-29T16:17:25.175Z,11.57
2023-01-29T16:20:01.934Z,10.28
2023-01-29T16:22:34.825Z,11.20
2023-01-29T16:25:09.831Z,11.22
2023-01-29T16:27:42.103Z,10.40
2023-01-29T16:30:17.145Z,12.20
2023-01-29T16:32:52.084Z,11.33
2023-01-29T16:35:21.576Z,11.67
2023-01-29T16:37:52.331Z,10.82
2023-01-29T16:40:33.712Z,11.20
2023-01-29T16:43:22.809Z,11.05
2023-01-29T16:46:20.407Z,12.63
2023-01-29T16:48:50.548Z,13.20
2023-01-29T16:51:35.216Z,13.62
2023-01-29T16:54:19.471Z,11.40
2023-01-29T16:56:52.254Z,13.05
2023-01-29T16:59:33.733Z,12.07
2023-01-29T17:02:04.819Z,13.10
2023-01-29T17:04:35.290Z,14.45
2023-01-29T17:07:04.791Z,13.45
2023-01-29T17:09:37.376Z,13.32
2023-01-29T17:12:10.096Z,11.75
2023-01-29T17:14:41.709Z,14.85
2023-01-29T17:17:19.634Z,12.55
2023-01-29T17:19:49.655Z,14.83
2023-01-29T17:22:19.122Z,14.13
2023-01-29T17:24:50.406Z,19.25
2023-01-29T17:27:22.749Z,23.27
2023-01-29T17:29:54.052Z,13.75
2023-01-29T17:32:25.593Z,13.90
2023-01-29T17:35:00.443Z,15.80
2023-01-29T17:37:29.069Z,15.58
2023-01-29T17:40:00.451Z,13.62
2023-01-29T17:42:30.126Z,15.07
2023-01-29T17:44:59.523Z,13.25
2023-01-29T17:47:29.516Z,14.15
2023-01-29T17:50:00.524Z,19.67
2023-01-29T17:52:30.011Z,22.93
2023-01-29T17:54:59.399Z,21.05
2023-01-29T17:57:29.447Z,15.93
2023-01-29T17:59:59.959Z,20.37
2023-01-29T18:02:30.076Z,20.40
2023-01-29T18:05:00.474Z,24.47
2023-01-29T18:07:29.971Z,23.75
2023-01-29T18:09:59.437Z,18.67
2023-01-29T18:12:29.360Z,19.50
2023-01-29T18:14:58.800Z,21.48
2023-01-29T18:17:28.968Z,24.35
2023-01-29T18:19:59.970Z,19.10
2023-01-29T18:22:29.720Z,20.27
2023-01-29T18:24:59.467Z,17.17
2023-01-29T18:27:29.016Z,16.80
2023-01-29T18:29:58.428Z,17.85
2023-01-29T18:32:27.916Z,24.63
2023-01-29T18:34:58.277Z,26.43
2023-01-29T18:37:29.633Z,29.23
2023-01-29T18:39:59.636Z,33.67
2023-01-29T18:42:32.894Z,31.75
2023-01-29T18:45:03.822Z,35.45
2023-01-29T18:47:33.336Z,42.10
2023-01-29T18:50:02.759Z,41.80
2023-01-29T18:52:32.545Z,35.63
2023-01-29T18:55:01.970Z,33.00
2023-01-29T18:58:27.174Z,36.65
2023-01-29T19:00:04.334Z,36.53
2023-01-29T19:02:34.542Z,38.58
2023-01-29T19:05:04.072Z,33.28
2023-01-29T19:07:33.616Z,33.05
2023-01-29T19:10:04.688Z,29.70
2023-01-29T19:12:34.579Z,30.15
2023-01-29T19:15:04.574Z,26.00
2023-01-29T19:17:34.819Z,33.50
2023-01-29T19:20:05.329Z,30.37
2023-01-29T19:22:35.604Z,28.80
2023-01-29T19:25:05.297Z,27.40
2023-01-29T19:27:34.736Z,34.20
2023-01-29T19:30:09.912Z,47.27
2023-01-29T19:32:39.807Z,39.20
2023-01-29T19:35:09.397Z,38.50
2023-01-29T19:37:40.025Z,46.73
2023-01-29T19:40:12.182Z,43.30
2023-01-29T19:42:42.906Z,38.80
2023-01-29T19:45:12.501Z,36.33
2023-01-29T19:47:44.792Z,35.10
2023-01-29T19:50:14.284Z,43.38
2023-01-29T19:52:51.920Z,43.17
2023-01-29T19:55:16.043Z,39.25
2023-01-29T19:57:45.721Z,28.17
2023-01-29T20:00:17.882Z,26.23
2023-01-29T20:02:47.371Z,30.50
2023-01-29T20:05:18.891Z,29.57
2023-01-29T20:07:50.445Z,27.32
2023-01-29T20:10:20.887Z,31.12
2023-01-29T20:12:50.775Z,29.57
2023-01-29T20:15:20.335Z,32.73
2023-01-29T20:17:49.761Z,37.28
2023-01-29T20:20:19.663Z,36.03
2023-01-29T20:22:49.534Z,29.18
2023-01-29T20:25:19.149Z,21.05
2023-01-29T20:27:48.559Z,29.45
2023-01-29T20:30:18.459Z,30.30
2023-01-29T20:32:48.223Z,33.42
2023-01-29T20:35:17.803Z,33.73
2023-01-29T22:17:32.884Z,28.75
2023-01-29T22:20:03.865Z,29.30
2023-01-29T22:22:33.340Z,20.88
2023-01-29T22:25:03.787Z,19.52
2023-01-29T22:27:34.822Z,21.80
2023-01-29T22:30:04.865Z,19.77
2023-01-29T22:32:34.624Z,19.77
2023-01-29T22:35:04.231Z,18.35
2023-01-29T22:37:33.666Z,21.82
2023-01-29T22:40:03.882Z,22.50
2023-01-29T22:42:33.578Z,19.77
2023-01-29T22:45:03.122Z,20.70
2023-01-29T22:47:33.943Z,20.45
2023-01-29T22:50:06.700Z,19.80
2023-01-29T22:52:39.523Z,19.15
2023-01-29T22:55:11.431Z,19.17
2023-01-29T22:57:41.332Z,24.13
2023-01-29T23:00:13.099Z,18.05
2023-01-29T23:02:42.612Z,19.50
2023-01-29T23:05:12.405Z,22.23
2023-01-29T23:07:41.831Z,24.67
2023-01-29T23:10:14.637Z,20.40
2023-01-29T23:12:44.454Z,21.07
2023-01-29T23:15:13.930Z,19.15
2023-01-29T23:17:45.342Z,17.27
2023-01-29T23:20:15.275Z,19.47
2023-01-29T23:22:45.533Z,19.90
2023-01-29T23:25:15.006Z,21.75
2023-01-29T23:27:44.440Z,21.82
2023-01-29T23:30:14.474Z,19.77
2023-01-29T23:32:44.102Z,19.85
2023-01-29T23:35:13.526Z,23.13
2023-01-29T23:37:43.007Z,26.10
2023-01-29T23:40:13.510Z,21.35
2023-01-29T23:42:42.906Z,18.70
2023-01-29T23:45:13.200Z,15.10
2023-01-29T23:47:42.597Z,16.70
2023-01-29T23:50:13.193Z,15.43
2023-01-29T23:52:42.640Z,17.10
2023-01-29T23:55:12.069Z,17.40
2023-01-29T23:57:41.510Z,20.92
